Flight Track Log - Related Links

Times and Time Zones

All times are in EDT time to prevent confusion due to time zone crossing. See the SWA361 flight status page for this flight to view local times or setup timezone preferences in your user account.

Time Position Orientation Groundspeed Altitude Reporting Facility
EDT Latitude Longitude Course Direction KTS MPH feet Rate Location/Type
Sun 05:35:46 PM 42.9130 -71.4890 251° West 197 227 2,300  Level FlightAware
Sun 05:35:54 PM 42.9120 -71.4980 261° West 202 232 2,600 2,800 Climbing FlightAware
Sun 05:36:16 PM 42.9130 -71.5270 273° West 216 249 3,700 3,086 Climbing FlightAware
Sun 05:36:29 PM 42.9140 -71.5460 274° West 226 260 4,400 2,108 Climbing FlightAware
Sun 05:36:53 PM 42.9160 -71.5810 274° West 237 273 5,000 1,125 Climbing FlightAware
Sun 05:37:01 PM 42.9190 -71.5930 289° West 236 272 5,000 214 Level FlightAware
Sun 05:37:21 PM 42.9280 -71.6190 295° West 236 272 5,100 1,317 Climbing FlightAware
Sun 05:37:42 PM 42.9380 -71.6480 295° West 235 270 5,900 3,209 Climbing FlightAware
Sun 05:38:04 PM 42.9480 -71.6770 295° West 230 265 7,400 3,571 Climbing FlightAware
Sun 05:38:24 PM 42.9560 -71.7030 293° West 239 275 8,400 2,903 Climbing FlightAware
Sun 05:38:35 PM 42.9610 -71.7180 294° West 244 281 8,900 2,875 Climbing FlightAware
Sun 05:39:12 PM 42.9800 -71.7720 296° West 263 303 10,700 2,400 Climbing FlightAware
Sun 05:39:25 PM 42.9850 -71.7940 287° West 286 329 10,900 1,560 Climbing FlightAware
Sun 05:40:02 PM 42.9920 -71.8650 278° West 319 367 12,000 2,282 Climbing FlightAware
Sun 05:40:36 PM 43.0010 -71.9340 280° West 329 379 13,600 2,873 Climbing FlightAware
Sun 05:41:13 PM 43.0120 -72.0110 281° West 335 386 15,400 2,776 Climbing FlightAware
Sun 05:41:43 PM 43.0220 -72.0720 283° West 340 391 16,700 2,647 Climbing FlightAware
Sun 05:42:21 PM 43.0340 -72.1500 282° West 344 396 18,400 2,595 Climbing FlightAware
Sun 05:42:57 PM 43.0480 -72.2300 283° West 351 404 19,900 2,314 Climbing FlightAware
Sun 05:43:31 PM 43.0610 -72.3040 284° West 359 413 21,100 2,087 Climbing FlightAware
Sun 05:44:06 PM 43.0750 -72.3800 284° West 365 420 22,300 2,113 Climbing FlightAware
Sun 05:44:42 PM 43.0910 -72.4610 285° West 367 422 23,600 2,087 Climbing FlightAware
Sun 05:45:15 PM 43.1050 -72.5350 285° West 368 423 24,700 1,909 Climbing FlightAware
Sun 05:45:48 PM 43.1190 -72.6080 285° West 371 427 25,700 1,652 Climbing FlightAware
Sun 05:46:24 PM 43.1350 -72.6930 284° West 379 436 26,600 1,333 Climbing FlightAware
Sun 05:47:00 PM 43.1510 -72.7790 284° West 388 447 27,300 1,437 Climbing FlightAware
Sun 05:47:35 PM 43.1660 -72.8610 284° West 386 444 28,300 1,672 Climbing FlightAware
Sun 05:48:01 PM 43.1700 -72.9230 275° West 381 438 29,000 1,662 Climbing FlightAware
Sun 05:48:40 PM 43.1710 -73.0190 271° West 382 440 30,100 1,500 Climbing FlightAware
Sun 05:49:13 PM 43.1720 -73.0980 271° West 384 442 30,800 1,343 Climbing FlightAware
Sun 05:49:47 PM 43.1720 -73.1810 270° West 383 441 31,600 1,565 Climbing FlightAware
Sun 05:50:22 PM 43.1730 -73.2640 271° West 378 435 32,600 1,500 Climbing FlightAware
Sun 05:50:55 PM 43.1740 -73.3390 271° West 377 434 33,300 1,235 Climbing FlightAware
Sun 05:51:30 PM 43.1740 -73.4160 270° West 376 433 34,000 1,200 Climbing FlightAware
Sun 05:52:10 PM 43.1750 -73.5180 271° West 374 430 34,800 1,114 Climbing FlightAware
Sun 05:52:40 PM 43.1750 -73.5830 270° West 375 432 35,300 1,031 Climbing FlightAware
Sun 05:53:14 PM 43.1760 -73.6710 271° West 376 433 35,900 636 Climbing FlightAware
Sun 05:53:46 PM 43.1760 -73.7460 270° West 373 429 36,000 79 Climbing FlightAware
Sun 05:54:30 PM 43.1770 -73.8490 271° West 374 430 36,000  Level FlightAware
Sun 05:55:03 PM 43.1770 -73.9290 270° West 373 429 36,000  Level FlightAware
Sun 05:55:46 PM 43.1770 -74.0260 270° West 373 429 36,000  Level FlightAware
Sun 05:56:15 PM 43.1770 -74.0940 270° West 373 429 36,000  Level FlightAware
Sun 05:56:58 PM 43.1770 -74.2000 270° West 372 428 36,000  Level FlightAware
Sun 05:57:33 PM 43.1770 -74.2790 270° West 372 428 36,000  Level FlightAware
Sun 05:58:13 PM 43.1770 -74.3750 270° West 371 427 36,000  Level FlightAware
Sun 05:58:44 PM 43.1770 -74.4500 270° West 371 427 36,000  Level FlightAware
Sun 05:59:25 PM 43.1770 -74.5460 270° West 371 427 36,000  Level FlightAware
Sun 06:00:01 PM 43.1770 -74.6300 270° West 371 427 36,000  Level FlightAware
Sun 06:00:32 PM 43.1710 -74.7000 263° West 370 426 36,000  Level FlightAware
Sun 06:01:06 PM 43.1620 -74.7770 261° West 370 426 36,000  Level FlightAware
Sun 06:01:42 PM 43.1530 -74.8620 262° West 369 425 36,000  Level FlightAware
Sun 06:02:16 PM 43.1450 -74.9400 262° West 370 426 36,000  Level FlightAware
Sun 06:02:51 PM 43.1350 -75.0240 261° West 369 425 36,000  Level FlightAware
Sun 06:03:27 PM 43.1260 -75.1060 261° West 370 426 36,000  Level FlightAware
Sun 06:04:03 PM 43.1170 -75.1880 261° West 371 427 36,000  Level FlightAware
Sun 06:04:41 PM 43.1070 -75.2760 261° West 371 427 36,000  Level FlightAware
Sun 06:05:13 PM 43.0990 -75.3500 262° West 373 429 36,000  Level FlightAware
Sun 06:05:49 PM 43.0890 -75.4340 261° West 372 428 36,000  Level FlightAware
Sun 06:06:25 PM 43.0800 -75.5120 261° West 374 430 36,000  Level FlightAware
Sun 06:06:57 PM 43.0710 -75.5920 261° West 375 432 36,000  Level FlightAware
Sun 06:07:35 PM 43.0600 -75.6800 260° West 376 433 36,000  Level FlightAware
Sun 06:08:07 PM 43.0510 -75.7560 261° West 377 434 36,000  Level FlightAware
Sun 06:08:45 PM 43.0410 -75.8460 261° West 377 434 36,000  Level FlightAware
Sun 06:09:21 PM 43.0310 -75.9290 261° West 378 435 36,000  Level FlightAware
Sun 06:09:53 PM 43.0210 -76.0060 260° West 379 436 36,000  Level FlightAware
Sun 06:10:30 PM 43.0110 -76.0920 261° West 379 436 36,000  Level FlightAware
Sun 06:11:04 PM 43.0020 -76.1740 261° West 379 436 36,000  Level FlightAware
Sun 06:11:40 PM 42.9910 -76.2580 260° West 378 435 36,000  Level FlightAware
Sun 06:12:12 PM 42.9820 -76.3320 261° West 378 435 36,000  Level FlightAware
Sun 06:12:48 PM 42.9710 -76.4170 260° West 377 434 36,000  Level FlightAware
Sun 06:13:26 PM 42.9600 -76.5070 261° West 377 434 36,000  Level FlightAware
Sun 06:13:58 PM 42.9510 -76.5820 261° West 376 433 36,000  Level FlightAware
Sun 06:14:34 PM 42.9400 -76.6660 260° West 375 432 36,000  Level FlightAware
Sun 06:15:11 PM 42.9290 -76.7500 260° West 375 432 36,000  Level FlightAware
Sun 06:15:42 PM 42.9200 -76.8220 260° West 375 432 36,000  Level FlightAware
Sun 06:16:18 PM 42.9100 -76.9060 261° West 375 432 36,000  Level FlightAware
Sun 06:16:56 PM 42.8980 -76.9960 260° West 375 432 36,000  Level FlightAware
Sun 06:17:30 PM 42.8820 -77.0740 254° West 377 434 36,000  Level FlightAware
Sun 06:18:03 PM 42.8690 -77.1470 256° West 376 433 36,000  Level FlightAware
Sun 06:18:38 PM 42.8560 -77.2300 258° West 379 436 36,000  Level FlightAware
Sun 06:19:16 PM 42.8410 -77.3180 257° West 378 435 36,000  Level FlightAware
Sun 06:19:48 PM 42.8280 -77.3940 257° West 378 435 36,000  Level FlightAware
Sun 06:20:24 PM 42.8140 -77.4760 257° West 380 437 36,000  Level FlightAware
Sun 06:21:00 PM 42.8000 -77.5600 257° West 381 438 36,000  Level FlightAware
Sun 06:21:32 PM 42.7880 -77.6310 257° West 381 438 36,000  Level FlightAware
Sun 06:22:08 PM 42.7730 -77.7170 257° West 382 440 36,000  Level FlightAware
Sun 06:22:44 PM 42.7580 -77.8040 257° West 383 441 36,000  Level FlightAware
Sun 06:23:18 PM 42.7440 -77.8830 256° West 383 441 36,000  Level FlightAware
Sun 06:23:54 PM 42.7300 -77.9670 257° West 384 442 36,000  Level FlightAware
Sun 06:24:30 PM 42.7150 -78.0510 256° West 383 441 36,000  Level FlightAware
Sun 06:25:06 PM 42.7000 -78.1360 257° West 382 440 36,000  Level FlightAware
Sun 06:25:38 PM 42.6870 -78.2090 256° West 381 438 36,000  Level FlightAware
Sun 06:26:12 PM 42.6730 -78.2880 256° West 382 440 36,000  Level FlightAware
Sun 06:26:50 PM 42.6570 -78.3770 256° West 383 441 36,000  Level FlightAware
Sun 06:27:26 PM 42.6420 -78.4630 257° West 384 442 36,000  Level FlightAware
Sun 06:27:58 PM 42.6290 -78.5370 257° West 385 443 36,000  Level FlightAware
Sun 06:28:34 PM 42.6140 -78.6200 256° West 385 443 36,000  Level FlightAware
Sun 06:29:09 PM 42.5980 -78.7040 256° West 385 443 36,000  Level FlightAware
Sun 06:29:41 PM 42.5850 -78.7790 257° West 381 438 36,000  Level FlightAware
Sun 06:30:19 PM 42.5690 -78.8670 256° West 380 437 36,000  Level FlightAware
Sun 06:30:55 PM 42.5530 -78.9500 255° West 380 437 36,000  Level FlightAware
Sun 06:31:27 PM 42.5400 -79.0230 256° West 380 437 36,000  Level FlightAware
Sun 06:32:03 PM 42.5250 -79.1060 256° West 379 436 36,000  Level FlightAware
Sun 06:32:37 PM 42.5100 -79.1830 255° West 378 435 36,000  Level FlightAware
Sun 06:33:15 PM 42.4940 -79.2680 256° West 378 435 36,000  Level FlightAware
Sun 06:33:51 PM 42.4780 -79.3530 256° West 377 434 36,000  Level FlightAware
Sun 06:34:23 PM 42.4640 -79.4270 256° West 376 433 36,000  Level FlightAware
Sun 06:34:59 PM 42.4500 -79.5030 256° West 376 433 36,000  Level FlightAware
Sun 06:35:33 PM 42.4340 -79.5850 255° West 375 432 36,000  Level FlightAware
Sun 06:36:08 PM 42.4200 -79.6590 256° West 375 432 36,000  Level FlightAware
Sun 06:36:42 PM 42.4050 -79.7380 256° West 375 432 36,000  Level FlightAware
Sun 06:37:18 PM 42.3890 -79.8200 255° West 375 432 36,000  Level FlightAware
Sun 06:37:52 PM 42.3750 -79.8960 256° West 376 433 36,000  Level FlightAware
Sun 06:38:26 PM 42.3600 -79.9730 255° West 376 433 36,000  Level FlightAware
Sun 06:39:01 PM 42.3430 -80.0580 255° West 377 434 36,000  Level FlightAware
Sun 06:39:38 PM 42.3270 -80.1400 255° West 377 434 36,000  Level FlightAware
Sun 06:40:08 PM 42.3140 -80.2100 256° West 377 434 36,000  Level FlightAware
Sun 06:40:49 PM 42.2950 -80.3030 255° West 378 435 36,000  Level FlightAware
Sun 06:41:24 PM 42.2800 -80.3790 255° West 378 435 36,000  Level FlightAware
Sun 06:41:59 PM 42.2630 -80.4620 255° West 379 436 36,000  Level FlightAware
Sun 06:42:36 PM 42.2470 -80.5440 255° West 380 437 36,000  Level FlightAware
Sun 06:43:06 PM 42.2330 -80.6150 255° West 380 437 36,000  Level FlightAware
Sun 06:43:41 PM 42.2170 -80.6940 255° West 379 436 36,000  Level FlightAware
Sun 06:44:26 PM 42.1970 -80.7950 255° West 378 435 36,000  Level FlightAware
Sun 06:45:00 PM 42.1810 -80.8730 255° West 376 433 36,000  Level FlightAware
Sun 06:45:38 PM 42.1630 -80.9600 254° West 375 432 36,000  Level FlightAware
Sun 06:46:10 PM 42.1490 -81.0310 255° West 374 430 36,000  Level FlightAware
Sun 06:46:44 PM 42.1330 -81.1070 254° West 373 429 36,000  Level FlightAware
Sun 06:47:22 PM 42.1160 -81.1920 255° West 373 429 36,000  Level FlightAware
Sun 06:47:57 PM 42.1000 -81.2680 254° West 372 428 36,000  Level FlightAware
Sun 06:48:28 PM 42.0850 -81.3380 254° West 372 428 36,000  Level FlightAware
Sun 06:49:07 PM 42.0680 -81.4240 255° West 372 428 36,000  Level FlightAware
Sun 06:49:39 PM 42.0530 -81.4940 254° West 372 428 36,000  Level FlightAware
Sun 06:50:11 PM 42.0380 -81.5650 254° West 372 428 36,000  Level FlightAware
Sun 06:50:52 PM 42.0180 -81.6580 254° West 374 430 36,000  Level FlightAware
Sun 06:51:22 PM 42.0040 -81.7270 255° West 374 430 36,000  Level FlightAware
Sun 06:52:00 PM 41.9860 -81.8100 254° West 373 429 36,000  Level FlightAware
Sun 06:52:37 PM 41.9690 -81.8900 254° West 373 429 36,000  Level FlightAware
Sun 06:53:09 PM 41.9540 -81.9620 254° West 373 429 36,000  Level FlightAware
Sun 06:53:46 PM 41.9360 -82.0460 254° West 373 429 36,000  Level FlightAware
Sun 06:54:21 PM 41.9190 -82.1220 253° West 374 430 36,000  Level FlightAware
Sun 06:54:56 PM 41.9020 -82.2010 254° West 373 429 36,000  Level FlightAware
Sun 06:55:33 PM 41.8850 -82.2800 254° West 373 429 36,000  Level FlightAware
Sun 06:56:05 PM 41.8700 -82.3520 254° West 372 428 36,000  Level FlightAware
Sun 06:56:42 PM 41.8510 -82.4360 253° West 372 428 36,000  Level FlightAware
Sun 06:57:19 PM 41.8340 -82.5160 254° West 370 426 36,000  Level FlightAware
Sun 06:57:51 PM 41.8200 -82.5910 256° West 370 426 36,000  Level FlightAware
Sun 06:58:27 PM 41.8080 -82.6720 259° West 371 427 36,000  Level FlightAware
Sun 06:58:56 PM 41.7980 -82.7370 258° West 371 427 36,000  Level FlightAware
Sun 06:59:31 PM 41.7850 -82.8170 258° West 371 427 36,000  Level FlightAware
Sun 07:00:07 PM 41.7730 -82.8980 259° West 373 429 36,000  Level FlightAware
Sun 07:00:39 PM 41.7610 -82.9690 257° West 373 429 36,000  Level FlightAware
Sun 07:01:17 PM 41.7470 -83.0560 258° West 374 430 36,000 -83 Level FlightAware
Sun 07:01:51 PM 41.7350 -83.1320 258° West 373 429 35,900 -618 Descending FlightAware
Sun 07:02:25 PM 41.7230 -83.2100 258° West 374 430 35,300 -1,029 Descending FlightAware
Sun 07:03:01 PM 41.7100 -83.2890 258° West 368 423 34,700 -1,000 Descending FlightAware
Sun 07:03:37 PM 41.6970 -83.3680 258° West 361 415 34,100 -618 Descending FlightAware
Sun 07:04:09 PM 41.6860 -83.4380 258° West 351 404 34,000 -91 Descending FlightAware
Sun 07:04:43 PM 41.6740 -83.5090 257° West 352 405 34,000  Level FlightAware
Sun 07:05:21 PM 41.6600 -83.5910 257° West 354 407 34,000  Level FlightAware
Sun 07:05:57 PM 41.6480 -83.6670 258° West 357 411 34,000  Level FlightAware
Sun 07:06:33 PM 41.6350 -83.7450 257° West 356 410 34,000  Level FlightAware
Sun 07:07:05 PM 41.6230 -83.8140 257° West 356 410 34,000  Level FlightAware
Sun 07:07:41 PM 41.6100 -83.8910 257° West 356 410 34,000  Level FlightAware
Sun 07:08:13 PM 41.5990 -83.9590 258° West 356 410 34,000  Level FlightAware
Sun 07:08:51 PM 41.5850 -84.0400 257° West 356 410 34,000  Level FlightAware
Sun 07:09:21 PM 41.5750 -84.1010 258° West 357 411 34,000  Level FlightAware
Sun 07:09:59 PM 41.5600 -84.1880 257° West 356 410 34,000  Level FlightAware
Sun 07:10:35 PM 41.5470 -84.2630 257° West 356 410 34,000  Level FlightAware
Sun 07:11:11 PM 41.5340 -84.3410 257° West 356 410 34,000  Level FlightAware
Sun 07:12:00 PM 41.5170 -84.4400 257° West 355 409 34,000  Level FlightAware
Sun 07:12:36 PM 41.5030 -84.5210 257° West 356 410 34,000  Level FlightAware
Sun 07:13:09 PM 41.4900 -84.5930 256° West 356 410 34,000  Level FlightAware
Sun 07:13:44 PM 41.4820 -84.6660 262° West 359 413 34,000  Level FlightAware
Sun 07:14:18 PM 41.4840 -84.7420 272° West 359 413 34,000  Level FlightAware
Sun 07:14:57 PM 41.4870 -84.8280 273° West 357 411 34,000 -692 Level FlightAware
Sun 07:15:36 PM 41.4900 -84.9140 273° West 360 414 33,100 -1,105 Descending FlightAware
Sun 07:16:13 PM 41.4940 -84.9990 274° West 371 427 32,600 -822 Descending FlightAware
Sun 07:16:49 PM 41.4960 -85.0810 272° West 376 433 32,100 -1,000 Descending FlightAware
Sun 07:17:19 PM 41.4990 -85.1520 273° West 377 434 31,500 -1,588 Descending FlightAware
Sun 07:17:57 PM 41.5020 -85.2380 273° West 377 434 30,300 -1,944 Descending FlightAware
Sun 07:18:30 PM 41.5040 -85.3160 272° West 380 437 29,200 -1,971 Descending FlightAware
Sun 07:19:07 PM 41.5070 -85.4030 273° West 388 447 28,000 -1,973 Descending FlightAware
Sun 07:19:43 PM 41.5100 -85.4900 273° West 393 452 26,800 -1,941 Descending FlightAware
Sun 07:20:15 PM 41.5120 -85.5680 272° West 398 458 25,800 -2,118 Descending FlightAware
Sun 07:20:51 PM 41.5150 -85.6550 273° West 394 453 24,400 -2,500 Descending FlightAware
Sun 07:21:27 PM 41.5170 -85.7420 272° West 379 436 22,800 -2,712 Descending FlightAware
Sun 07:22:04 PM 41.5200 -85.8280 273° West 371 427 21,100 -2,750 Descending FlightAware
Sun 07:22:39 PM 41.5210 -85.9060 271° West 366 421 19,500 -2,344 Descending FlightAware
Sun 07:23:08 PM 41.5210 -85.9670 270° West 355 409 18,600 -2,149 Descending FlightAware
Sun 07:23:46 PM 41.5220 -86.0510 271° West 344 396 17,100 -2,229 Descending FlightAware
Sun 07:24:18 PM 41.5220 -86.1150 270° West 337 388 16,000 -2,100 Descending FlightAware
Sun 07:24:46 PM 41.5230 -86.1740 271° West 330 380 15,000 -2,000 Descending FlightAware
Sun 07:25:24 PM 41.5230 -86.2440 270° West 323 372 13,800 -2,132 Descending FlightAware
Sun 07:26:02 PM 41.5230 -86.3250 270° West 317 365 12,300 -2,294 Descending FlightAware
Sun 07:26:32 PM 41.5230 -86.3850 270° West 313 360 11,200 -1,478 Descending FlightAware
Sun 07:27:11 PM 41.5230 -86.4590 270° West 308 354 10,600 -857 Descending FlightAware
Sun 07:27:42 PM 41.5230 -86.5160 270° West 307 353 10,200 -358 Descending FlightAware
Sun 07:28:18 PM 41.5220 -86.5820 269° West 283 326 10,200  Level FlightAware
Sun 07:28:50 PM 41.5220 -86.6350 270° West 248 285 10,200  Level FlightAware
Sun 07:29:25 PM 41.5210 -86.6820 268° West 214 246 10,200  Level FlightAware
Sun 07:29:36 PM 41.5160 -86.6970 246° West 210 242 10,200  Level FlightAware
Sun 07:30:10 PM 41.5020 -86.7370 245° Southwest 207 238 10,200  Level FlightAware
Sun 07:30:47 PM 41.4870 -86.7770 243° Southwest 206 237 10,200  Level FlightAware
Sun 07:31:20 PM 41.4730 -86.8170 245° Southwest 206 237 10,200 -286 Level FlightAware
Sun 07:31:50 PM 41.4610 -86.8520 245° Southwest 207 238 9,900 -783 Descending FlightAware
Sun 07:32:06 PM 41.4550 -86.8690 245° Southwest 208 239 9,600 -833 Descending FlightAware
Sun 07:32:26 PM 41.4470 -86.8900 243° Southwest 208 239 9,400 -900 Descending FlightAware
Sun 07:32:46 PM 41.4380 -86.9170 246° West 207 238 9,000 -1,167 Descending FlightAware
Sun 07:33:02 PM 41.4310 -86.9360 244° Southwest 205 236 8,700 -1,000 Descending FlightAware
Sun 07:33:22 PM 41.4240 -86.9570 246° West 203 234 8,400 -947 Descending FlightAware
Sun 07:33:40 PM 41.4160 -86.9790 244° Southwest 202 232 8,100 -1,111 Descending FlightAware
Sun 07:33:49 PM 41.4140 -86.9900 256° West 200 230 7,900 -1,034 Descending FlightAware
Sun 07:34:09 PM 41.4190 -87.0130 286° West 209 241 7,600 -1,000 Descending FlightAware
Sun 07:34:19 PM 41.4250 -87.0230 309° West 215 247 7,400 -1,034 Descending FlightAware
Sun 07:34:38 PM 41.4380 -87.0420 312° West 216 249 7,100 -1,024 Descending FlightAware
Sun 07:35:00 PM 41.4530 -87.0640 312° West 216 249 6,700 -1,000 Descending FlightAware
Sun 07:35:20 PM 41.4670 -87.0850 312° West 217 250 6,400 -909 Descending FlightAware
Sun 07:35:33 PM 41.4750 -87.0970 312° West 218 251 6,200 -255 Descending FlightAware
Sun 07:36:07 PM 41.4950 -87.1280 311° West 216 249 6,200  Level FlightAware
Sun 07:36:24 PM 41.5060 -87.1450 311° West 206 237 6,200  Level FlightAware
Sun 07:36:30 PM 41.5090 -87.1530 297° West 203 234 6,200  Level FlightAware
Sun 07:36:36 PM 41.5120 -87.1620 294° West 196 226 6,200  Level FlightAware
Sun 07:36:43 PM 41.5130 -87.1700 279° West 186 214 6,200  Level FlightAware
Sun 07:37:05 PM 41.5140 -87.1930 273° West 165 190 6,200  Level FlightAware
Sun 07:37:24 PM 41.5150 -87.2120 274° West 159 183 6,200  Level FlightAware
Sun 07:37:49 PM 41.5170 -87.2360 276° West 157 181 6,200  Level FlightAware
Sun 07:38:10 PM 41.5180 -87.2550 274° West 154 177 6,200  Level FlightAware
Sun 07:38:29 PM 41.5200 -87.2730 278° West 152 175 6,200  Level FlightAware
Sun 07:38:50 PM 41.5210 -87.2940 274° West 151 174 6,200  Level FlightAware
Sun 07:39:14 PM 41.5230 -87.3160 277° West 150 173 6,200  Level FlightAware
Sun 07:39:45 PM 41.5200 -87.3420 261° West 146 168 6,200  Level FlightAware
Sun 07:40:04 PM 41.5150 -87.3590 249° West 146 168 6,200  Level FlightAware
Sun 07:40:13 PM 41.5130 -87.3670 252° West 146 168 6,200  Level FlightAware
Sun 07:40:16 PM 41.5130 -87.3690 270° West 148 170 6,200  Level FlightAware
Sun 07:40:37 PM 41.5210 -87.3850 304° West 170 196 6,200  Level FlightAware
Sun 07:40:51 PM 41.5290 -87.3950 317° Northwest 173 199 6,200 -615 Level FlightAware
Sun 07:41:16 PM 41.5450 -87.4150 317° Northwest 175 201 5,800 -933 Descending FlightAware
Sun 07:41:36 PM 41.5550 -87.4280 316° Northwest 176 203 5,500 -837 Descending FlightAware
Sun 07:41:59 PM 41.5660 -87.4440 313° West 175 201 5,200 -933 Descending FlightAware
Sun 07:42:21 PM 41.5800 -87.4640 313° West 160 184 4,800 -973 Descending FlightAware
Sun 07:42:36 PM 41.5870 -87.4750 310° West 156 180 4,600 -878 Descending FlightAware
Sun 07:43:02 PM 41.6010 -87.4930 316° Northwest 155 178 4,200 -436 Descending FlightAware
Sun 07:43:31 PM 41.6150 -87.5130 313° West 151 174 4,200  Level FlightAware
Sun 07:43:51 PM 41.6250 -87.5270 314° West 150 173 4,200  Level FlightAware
Sun 07:44:04 PM 41.6320 -87.5370 313° West 155 178 4,200  Level FlightAware
Sun 07:44:24 PM 41.6420 -87.5510 314° West 164 189 4,200  Level FlightAware
Sun 07:44:48 PM 41.6540 -87.5680 313° West 164 189 4,200 -261 Level FlightAware
Sun 07:45:10 PM 41.6660 -87.5840 315° West 163 188 4,000 -857 Descending FlightAware
Sun 07:45:30 PM 41.6760 -87.5990 312° West 161 185 3,600 -1,171 Descending FlightAware
Sun 07:45:51 PM 41.6870 -87.6140 314° West 168 193 3,200 -1,171 Descending FlightAware
Sun 07:46:11 PM 41.6980 -87.6290 314° West 164 189 2,800 -833 Descending FlightAware
Sun 07:46:27 PM 41.7060 -87.6410 312° West 169 194 2,700 -500 Descending FlightAware
Sun 07:46:47 PM 41.7180 -87.6580 313° West 179 206 2,500 -615 Descending FlightAware
Sun 07:47:06 PM 41.7290 -87.6700 321° Northwest 181 208 2,300 -857 Descending FlightAware
Sun 07:47:15 PM 41.7350 -87.6740 334° Northwest 191 220 2,100 -1,059 Descending FlightAware
Sun 07:47:23 PM 41.7430 -87.6750 355° North 196 226 2,000 -343 Descending FlightAware
Sun 07:47:50 PM 41.7670 -87.6730 North 191 220 1,900 -133 Descending FlightAware
Sun 07:48:08 PM 41.7840 -87.6690 10° North 194 223 1,900  Level FlightAware
Sun 07:48:31 PM 41.8020 -87.6730 351° North 160 184 1,900  Level FlightAware
Sun 07:48:38 PM 41.8060 -87.6770 323° Northwest 158 182 1,900 -400 Level FlightAware
Sun 07:48:46 PM 41.8100 -87.6820 317° Northwest 148 170 1,800 -375 Descending FlightAware
Sun 07:48:54 PM 41.8130 -87.6880 304° West 139 160 1,800 -300 Level FlightAware
Sun 07:49:06 PM 41.8140 -87.6970 278° West 134 154 1,700 -750 Descending FlightAware
Sun 07:49:26 PM 41.8120 -87.7150 262° West 130 150 1,400 -1,034 Descending FlightAware
Sun 07:49:35 PM 41.8090 -87.7210 236° Southwest 127 146 1,200 -750 Descending FlightAware
Sun 07:49:50 PM 41.8030 -87.7290 225° Southwest 124 143 1,100 -545 Descending FlightAware
Sun 07:50:08 PM 41.7950 -87.7390 223° Southwest 135 155 900 -261 Descending FlightAware
Sun 07:50:36 PM 41.7850 -87.7520 224° Southwest 135 155 900  Level FlightAware

Login

Don't have an account? Register now (free) for customized features, flight alerts, and more!